sensor_id;sensor_type;location;lat;lon;timestamp;P1;durP1;ratioP1;P2;durP2;ratioP2
83513;SDS011;73447;53.262;10.424;2024-01-30T00:00:06;13.13;;;6.95;;
83513;SDS011;73447;53.262;10.424;2024-01-30T00:02:33;9.93;;;6.05;;
83513;SDS011;73447;53.262;10.424;2024-01-30T00:04:58;12.55;;;7.25;;
83513;SDS011;73447;53.262;10.424;2024-01-30T00:07:23;9.80;;;6.55;;
83513;SDS011;73447;53.262;10.424;2024-01-30T00:09:49;10.30;;;6.40;;
83513;SDS011;73447;53.262;10.424;2024-01-30T00:12:14;13.10;;;6.43;;
83513;SDS011;73447;53.262;10.424;2024-01-30T00:14:41;10.48;;;6.35;;
83513;SDS011;73447;53.262;10.424;2024-01-30T00:17:08;11.77;;;7.38;;
83513;SDS011;73447;53.262;10.424;2024-01-30T00:19:33;10.82;;;7.03;;
83513;SDS011;73447;53.262;10.424;2024-01-30T00:21:58;15.98;;;7.80;;
83513;SDS011;73447;53.262;10.424;2024-01-30T00:24:24;11.82;;;7.22;;
83513;SDS011;73447;53.262;10.424;2024-01-30T00:26:49;11.30;;;7.25;;
83513;SDS011;73447;53.262;10.424;2024-01-30T00:29:15;11.57;;;7.68;;
83513;SDS011;73447;53.262;10.424;2024-01-30T00:31:44;9.18;;;7.00;;
83513;SDS011;73447;53.262;10.424;2024-01-30T00:34:10;13.38;;;7.82;;
83513;SDS011;73447;53.262;10.424;2024-01-30T00:36:35;14.00;;;7.10;;
83513;SDS011;73447;53.262;10.424;2024-01-30T00:39:01;13.45;;;7.55;;
83513;SDS011;73447;53.262;10.424;2024-01-30T00:41:31;12.18;;;7.10;;
83513;SDS011;73447;53.262;10.424;2024-01-30T00:43:56;12.00;;;7.68;;
83513;SDS011;73447;53.262;10.424;2024-01-30T00:46:21;12.43;;;7.45;;
83513;SDS011;73447;53.262;10.424;2024-01-30T00:48:47;12.02;;;7.50;;
83513;SDS011;73447;53.262;10.424;2024-01-30T00:51:12;10.70;;;7.10;;
83513;SDS011;73447;53.262;10.424;2024-01-30T00:53:37;12.45;;;7.43;;
83513;SDS011;73447;53.262;10.424;2024-01-30T00:56:03;12.05;;;6.85;;
83513;SDS011;73447;53.262;10.424;2024-01-30T00:58:28;10.50;;;6.78;;
83513;SDS011;73447;53.262;10.424;2024-01-30T01:00:54;10.45;;;7.07;;
83513;SDS011;73447;53.262;10.424;2024-01-30T01:03:19;16.73;;;7.40;;
83513;SDS011;73447;53.262;10.424;2024-01-30T01:05:45;10.00;;;7.07;;
83513;SDS011;73447;53.262;10.424;2024-01-30T01:08:10;11.05;;;7.32;;
83513;SDS011;73447;53.262;10.424;2024-01-30T01:10:35;11.65;;;8.02;;
83513;SDS011;73447;53.262;10.424;2024-01-30T01:13:01;15.27;;;7.55;;
83513;SDS011;73447;53.262;10.424;2024-01-30T01:15:26;11.20;;;7.47;;
83513;SDS011;73447;53.262;10.424;2024-01-30T01:17:51;11.75;;;6.88;;
83513;SDS011;73447;53.262;10.424;2024-01-30T01:20:17;15.07;;;7.68;;
83513;SDS011;73447;53.262;10.424;2024-01-30T01:22:42;11.00;;;7.28;;
83513;SDS011;73447;53.262;10.424;2024-01-30T01:25:08;11.13;;;6.63;;
83513;SDS011;73447;53.262;10.424;2024-01-30T01:27:35;13.48;;;7.45;;
83513;SDS011;73447;53.262;10.424;2024-01-30T01:30:05;11.30;;;7.28;;
83513;SDS011;73447;53.262;10.424;2024-01-30T01:32:34;10.05;;;6.65;;
83513;SDS011;73447;53.262;10.424;2024-01-30T01:34:59;16.85;;;7.82;;
83513;SDS011;73447;53.262;10.424;2024-01-30T01:37:24;11.90;;;6.93;;
83513;SDS011;73447;53.262;10.424;2024-01-30T01:39:51;11.85;;;7.70;;
83513;SDS011;73447;53.262;10.424;2024-01-30T01:42:17;12.77;;;8.30;;
83513;SDS011;73447;53.262;10.424;2024-01-30T01:44:42;13.15;;;7.78;;
83513;SDS011;73447;53.262;10.424;2024-01-30T01:47:08;12.32;;;8.05;;
83513;SDS011;73447;53.262;10.424;2024-01-30T01:49:33;13.35;;;8.02;;
83513;SDS011;73447;53.262;10.424;2024-01-30T01:51:59;13.15;;;7.43;;
83513;SDS011;73447;53.262;10.424;2024-01-30T01:54:25;11.98;;;7.63;;
83513;SDS011;73447;53.262;10.424;2024-01-30T01:56:53;13.20;;;7.28;;
83513;SDS011;73447;53.262;10.424;2024-01-30T01:59:20;16.02;;;7.50;;
83513;SDS011;73447;53.262;10.424;2024-01-30T02:01:47;16.08;;;7.82;;
83513;SDS011;73447;53.262;10.424;2024-01-30T02:04:14;10.07;;;6.53;;
83513;SDS011;73447;53.262;10.424;2024-01-30T02:06:40;15.27;;;6.97;;
83513;SDS011;73447;53.262;10.424;2024-01-30T02:09:06;15.50;;;7.38;;
83513;SDS011;73447;53.262;10.424;2024-01-30T02:11:32;16.80;;;7.22;;
83513;SDS011;73447;53.262;10.424;2024-01-30T02:14:01;13.38;;;7.47;;
83513;SDS011;73447;53.262;10.424;2024-01-30T02:16:27;9.63;;;7.32;;
83513;SDS011;73447;53.262;10.424;2024-01-30T02:18:53;10.23;;;6.80;;
83513;SDS011;73447;53.262;10.424;2024-01-30T02:21:18;11.65;;;7.18;;
83513;SDS011;73447;53.262;10.424;2024-01-30T02:23:44;12.10;;;7.45;;
83513;SDS011;73447;53.262;10.424;2024-01-30T02:26:11;9.95;;;6.93;;
83513;SDS011;73447;53.262;10.424;2024-01-30T02:28:37;11.45;;;6.97;;
83513;SDS011;73447;53.262;10.424;2024-01-30T02:31:03;11.63;;;7.05;;
83513;SDS011;73447;53.262;10.424;2024-01-30T02:33:29;10.30;;;6.88;;
83513;SDS011;73447;53.262;10.424;2024-01-30T02:35:55;12.45;;;7.13;;
83513;SDS011;73447;53.262;10.424;2024-01-30T02:38:20;13.63;;;7.90;;
83513;SDS011;73447;53.262;10.424;2024-01-30T02:40:45;11.75;;;6.70;;
83513;SDS011;73447;53.262;10.424;2024-01-30T02:43:11;12.48;;;7.65;;
83513;SDS011;73447;53.262;10.424;2024-01-30T02:45:36;11.00;;;7.00;;
83513;SDS011;73447;53.262;10.424;2024-01-30T02:48:02;12.90;;;7.65;;
83513;SDS011;73447;53.262;10.424;2024-01-30T02:50:27;13.10;;;7.65;;
83513;SDS011;73447;53.262;10.424;2024-01-30T02:52:53;11.45;;;7.38;;
83513;SDS011;73447;53.262;10.424;2024-01-30T02:55:18;11.95;;;7.50;;
83513;SDS011;73447;53.262;10.424;2024-01-30T02:57:44;12.85;;;8.13;;
83513;SDS011;73447;53.262;10.424;2024-01-30T03:00:09;14.27;;;8.55;;
83513;SDS011;73447;53.262;10.424;2024-01-30T03:02:36;12.48;;;7.57;;
83513;SDS011;73447;53.262;10.424;2024-01-30T03:05:01;15.20;;;7.60;;
83513;SDS011;73447;53.262;10.424;2024-01-30T03:07:28;13.80;;;8.55;;
83513;SDS011;73447;53.262;10.424;2024-01-30T03:09:54;13.70;;;7.78;;
83513;SDS011;73447;53.262;10.424;2024-01-30T03:12:20;12.90;;;7.80;;
83513;SDS011;73447;53.262;10.424;2024-01-30T03:14:46;14.75;;;7.82;;
83513;SDS011;73447;53.262;10.424;2024-01-30T03:17:11;11.55;;;7.45;;
83513;SDS011;73447;53.262;10.424;2024-01-30T03:19:36;11.70;;;7.22;;
83513;SDS011;73447;53.262;10.424;2024-01-30T03:22:02;14.73;;;7.88;;
83513;SDS011;73447;53.262;10.424;2024-01-30T03:24:27;12.43;;;7.32;;
83513;SDS011;73447;53.262;10.424;2024-01-30T03:26:53;12.65;;;7.47;;
83513;SDS011;73447;53.262;10.424;2024-01-30T03:29:18;13.80;;;8.00;;
83513;SDS011;73447;53.262;10.424;2024-01-30T03:31:44;14.15;;;7.45;;
83513;SDS011;73447;53.262;10.424;2024-01-30T03:34:09;18.90;;;8.52;;
83513;SDS011;73447;53.262;10.424;2024-01-30T03:36:35;12.32;;;7.68;;
83513;SDS011;73447;53.262;10.424;2024-01-30T03:39:00;11.65;;;7.57;;
83513;SDS011;73447;53.262;10.424;2024-01-30T03:41:26;12.57;;;7.78;;
83513;SDS011;73447;53.262;10.424;2024-01-30T03:43:51;14.38;;;7.78;;
83513;SDS011;73447;53.262;10.424;2024-01-30T03:46:17;11.80;;;7.78;;
83513;SDS011;73447;53.262;10.424;2024-01-30T03:48:42;11.07;;;7.40;;
83513;SDS011;73447;53.262;10.424;2024-01-30T03:51:08;12.55;;;7.75;;
83513;SDS011;73447;53.262;10.424;2024-01-30T03:53:34;13.35;;;8.10;;
83513;SDS011;73447;53.262;10.424;2024-01-30T03:56:00;13.25;;;8.32;;
83513;SDS011;73447;53.262;10.424;2024-01-30T03:58:25;10.07;;;7.90;;
83513;SDS011;73447;53.262;10.424;2024-01-30T04:00:51;10.23;;;7.15;;
83513;SDS011;73447;53.262;10.424;2024-01-30T04:03:16;18.45;;;8.68;;
83513;SDS011;73447;53.262;10.424;2024-01-30T04:05:42;13.90;;;8.23;;
83513;SDS011;73447;53.262;10.424;2024-01-30T04:08:08;15.98;;;8.32;;
83513;SDS011;73447;53.262;10.424;2024-01-30T04:10:33;14.88;;;8.55;;
83513;SDS011;73447;53.262;10.424;2024-01-30T04:12:59;16.85;;;8.40;;
83513;SDS011;73447;53.262;10.424;2024-01-30T04:15:25;13.23;;;8.52;;
83513;SDS011;73447;53.262;10.424;2024-01-30T04:17:51;12.57;;;7.78;;
83513;SDS011;73447;53.262;10.424;2024-01-30T04:20:16;14.65;;;8.65;;
83513;SDS011;73447;53.262;10.424;2024-01-30T04:22:45;11.15;;;7.53;;
83513;SDS011;73447;53.262;10.424;2024-01-30T04:25:11;13.65;;;7.78;;
83513;SDS011;73447;53.262;10.424;2024-01-30T04:27:37;12.48;;;7.43;;
83513;SDS011;73447;53.262;10.424;2024-01-30T04:30:03;14.93;;;8.38;;
83513;SDS011;73447;53.262;10.424;2024-01-30T04:32:29;13.23;;;8.35;;
83513;SDS011;73447;53.262;10.424;2024-01-30T04:34:54;16.33;;;8.52;;
83513;SDS011;73447;53.262;10.424;2024-01-30T04:37:20;13.43;;;8.65;;
83513;SDS011;73447;53.262;10.424;2024-01-30T04:39:45;12.32;;;8.00;;
83513;SDS011;73447;53.262;10.424;2024-01-30T04:42:10;11.60;;;7.63;;
83513;SDS011;73447;53.262;10.424;2024-01-30T04:44:36;15.48;;;9.20;;
83513;SDS011;73447;53.262;10.424;2024-01-30T04:47:01;13.65;;;8.68;;
83513;SDS011;73447;53.262;10.424;2024-01-30T04:49:27;14.68;;;8.48;;
83513;SDS011;73447;53.262;10.424;2024-01-30T04:51:54;14.23;;;8.73;;
83513;SDS011;73447;53.262;10.424;2024-01-30T04:54:19;13.77;;;8.35;;
83513;SDS011;73447;53.262;10.424;2024-01-30T04:56:45;13.93;;;8.68;;
83513;SDS011;73447;53.262;10.424;2024-01-30T04:59:10;12.80;;;8.73;;
83513;SDS011;73447;53.262;10.424;2024-01-30T05:01:35;14.68;;;8.57;;
83513;SDS011;73447;53.262;10.424;2024-01-30T05:04:01;13.02;;;8.25;;
83513;SDS011;73447;53.262;10.424;2024-01-30T05:06:27;13.80;;;8.68;;
83513;SDS011;73447;53.262;10.424;2024-01-30T05:08:53;15.07;;;8.55;;
83513;SDS011;73447;53.262;10.424;2024-01-30T05:11:18;27.15;;;15.63;;
83513;SDS011;73447;53.262;10.424;2024-01-30T05:13:44;19.17;;;11.45;;
83513;SDS011;73447;53.262;10.424;2024-01-30T05:16:10;28.52;;;16.75;;
83513;SDS011;73447;53.262;10.424;2024-01-30T05:18:35;38.38;;;23.30;;
83513;SDS011;73447;53.262;10.424;2024-01-30T05:21:01;24.27;;;14.30;;
83513;SDS011;73447;53.262;10.424;2024-01-30T05:23:27;19.98;;;11.35;;
83513;SDS011;73447;53.262;10.424;2024-01-30T05:25:52;18.75;;;9.75;;
83513;SDS011;73447;53.262;10.424;2024-01-30T05:28:18;14.95;;;8.60;;
83513;SDS011;73447;53.262;10.424;2024-01-30T05:30:43;15.60;;;9.43;;
83513;SDS011;73447;53.262;10.424;2024-01-30T05:33:09;17.25;;;10.00;;
83513;SDS011;73447;53.262;10.424;2024-01-30T05:35:34;18.45;;;9.85;;
83513;SDS011;73447;53.262;10.424;2024-01-30T05:38:00;18.98;;;9.50;;
83513;SDS011;73447;53.262;10.424;2024-01-30T05:40:25;16.50;;;9.60;;
83513;SDS011;73447;53.262;10.424;2024-01-30T05:42:50;18.23;;;9.63;;
83513;SDS011;73447;53.262;10.424;2024-01-30T05:45:16;15.80;;;9.23;;
83513;SDS011;73447;53.262;10.424;2024-01-30T05:47:41;13.93;;;8.55;;
83513;SDS011;73447;53.262;10.424;2024-01-30T05:50:07;15.32;;;8.88;;
83513;SDS011;73447;53.262;10.424;2024-01-30T05:52:32;15.10;;;8.40;;
83513;SDS011;73447;53.262;10.424;2024-01-30T05:54:58;12.27;;;8.60;;
83513;SDS011;73447;53.262;10.424;2024-01-30T05:57:23;15.13;;;9.27;;
83513;SDS011;73447;53.262;10.424;2024-01-30T05:59:48;17.73;;;9.57;;
83513;SDS011;73447;53.262;10.424;2024-01-30T06:02:16;13.57;;;9.02;;
83513;SDS011;73447;53.262;10.424;2024-01-30T06:04:41;14.93;;;9.25;;
83513;SDS011;73447;53.262;10.424;2024-01-30T06:07:07;15.32;;;8.85;;
83513;SDS011;73447;53.262;10.424;2024-01-30T06:09:33;13.80;;;9.48;;
83513;SDS011;73447;53.262;10.424;2024-01-30T06:11:58;16.20;;;9.82;;
83513;SDS011;73447;53.262;10.424;2024-01-30T06:14:23;14.95;;;9.35;;
83513;SDS011;73447;53.262;10.424;2024-01-30T06:16:49;16.30;;;8.95;;
83513;SDS011;73447;53.262;10.424;2024-01-30T06:19:14;14.10;;;8.75;;
83513;SDS011;73447;53.262;10.424;2024-01-30T06:21:40;14.82;;;9.45;;
83513;SDS011;73447;53.262;10.424;2024-01-30T06:24:06;14.93;;;9.50;;
83513;SDS011;73447;53.262;10.424;2024-01-30T06:26:31;15.60;;;9.88;;
83513;SDS011;73447;53.262;10.424;2024-01-30T06:28:56;16.35;;;9.75;;
83513;SDS011;73447;53.262;10.424;2024-01-30T06:31:22;16.55;;;10.18;;
83513;SDS011;73447;53.262;10.424;2024-01-30T06:33:47;17.48;;;10.00;;
83513;SDS011;73447;53.262;10.424;2024-01-30T06:36:13;14.50;;;8.90;;
83513;SDS011;73447;53.262;10.424;2024-01-30T06:38:39;16.13;;;8.77;;
83513;SDS011;73447;53.262;10.424;2024-01-30T06:41:04;19.40;;;9.52;;
83513;SDS011;73447;53.262;10.424;2024-01-30T06:43:29;16.40;;;10.55;;
83513;SDS011;73447;53.262;10.424;2024-01-30T06:45:55;17.65;;;9.25;;
83513;SDS011;73447;53.262;10.424;2024-01-30T06:48:20;16.00;;;9.77;;
83513;SDS011;73447;53.262;10.424;2024-01-30T06:50:46;16.48;;;9.45;;
83513;SDS011;73447;53.262;10.424;2024-01-30T06:53:12;16.83;;;9.80;;
83513;SDS011;73447;53.262;10.424;2024-01-30T06:55:38;17.52;;;9.90;;
83513;SDS011;73447;53.262;10.424;2024-01-30T06:58:03;15.32;;;9.25;;
83513;SDS011;73447;53.262;10.424;2024-01-30T07:00:29;16.40;;;9.75;;
83513;SDS011;73447;53.262;10.424;2024-01-30T07:02:54;16.67;;;10.25;;
83513;SDS011;73447;53.262;10.424;2024-01-30T07:05:19;17.65;;;9.75;;
83513;SDS011;73447;53.262;10.424;2024-01-30T07:07:46;19.55;;;11.27;;
83513;SDS011;73447;53.262;10.424;2024-01-30T07:10:12;22.13;;;10.95;;
83513;SDS011;73447;53.262;10.424;2024-01-30T07:12:37;21.42;;;13.00;;
83513;SDS011;73447;53.262;10.424;2024-01-30T07:15:03;19.10;;;11.80;;
83513;SDS011;73447;53.262;10.424;2024-01-30T07:17:29;19.60;;;11.25;;
83513;SDS011;73447;53.262;10.424;2024-01-30T07:19:54;21.58;;;12.18;;
83513;SDS011;73447;53.262;10.424;2024-01-30T07:22:20;21.20;;;12.52;;
83513;SDS011;73447;53.262;10.424;2024-01-30T07:24:45;22.92;;;12.52;;
83513;SDS011;73447;53.262;10.424;2024-01-30T07:27:13;17.98;;;11.60;;
83513;SDS011;73447;53.262;10.424;2024-01-30T07:29:39;17.88;;;10.15;;
83513;SDS011;73447;53.262;10.424;2024-01-30T07:32:05;18.63;;;12.00;;
83513;SDS011;73447;53.262;10.424;2024-01-30T07:34:30;17.90;;;11.13;;
83513;SDS011;73447;53.262;10.424;2024-01-30T07:36:55;16.83;;;10.15;;
83513;SDS011;73447;53.262;10.424;2024-01-30T07:39:21;17.35;;;10.90;;
83513;SDS011;73447;53.262;10.424;2024-01-30T07:41:46;18.20;;;10.60;;
83513;SDS011;73447;53.262;10.424;2024-01-30T07:44:12;18.10;;;10.05;;
83513;SDS011;73447;53.262;10.424;2024-01-30T07:46:37;21.05;;;11.07;;
83513;SDS011;73447;53.262;10.424;2024-01-30T07:49:02;17.38;;;10.27;;
83513;SDS011;73447;53.262;10.424;2024-01-30T07:51:28;19.58;;;10.05;;
83513;SDS011;73447;53.262;10.424;2024-01-30T07:53:54;18.88;;;10.65;;
83513;SDS011;73447;53.262;10.424;2024-01-30T07:56:20;15.60;;;9.73;;
83513;SDS011;73447;53.262;10.424;2024-01-30T07:58:45;21.73;;;10.80;;
83513;SDS011;73447;53.262;10.424;2024-01-30T08:01:11;19.65;;;10.77;;
83513;SDS011;73447;53.262;10.424;2024-01-30T08:03:36;15.80;;;9.20;;
83513;SDS011;73447;53.262;10.424;2024-01-30T08:06:02;19.10;;;11.13;;
83513;SDS011;73447;53.262;10.424;2024-01-30T08:08:28;17.02;;;10.60;;
83513;SDS011;73447;53.262;10.424;2024-01-30T08:10:53;18.00;;;10.07;;
83513;SDS011;73447;53.262;10.424;2024-01-30T08:13:19;18.33;;;10.20;;
83513;SDS011;73447;53.262;10.424;2024-01-30T08:15:44;17.13;;;10.75;;
83513;SDS011;73447;53.262;10.424;2024-01-30T08:18:09;16.65;;;10.20;;
83513;SDS011;73447;53.262;10.424;2024-01-30T08:20:35;16.63;;;9.93;;
83513;SDS011;73447;53.262;10.424;2024-01-30T08:23:00;15.52;;;9.60;;
83513;SDS011;73447;53.262;10.424;2024-01-30T08:25:26;16.67;;;9.73;;
83513;SDS011;73447;53.262;10.424;2024-01-30T08:27:51;17.73;;;10.93;;
83513;SDS011;73447;53.262;10.424;2024-01-30T08:30:16;17.42;;;10.88;;
83513;SDS011;73447;53.262;10.424;2024-01-30T08:32:42;22.08;;;10.48;;
83513;SDS011;73447;53.262;10.424;2024-01-30T08:35:07;17.67;;;9.85;;
83513;SDS011;73447;53.262;10.424;2024-01-30T08:37:33;17.77;;;9.98;;
83513;SDS011;73447;53.262;10.424;2024-01-30T08:39:59;15.40;;;9.38;;
83513;SDS011;73447;53.262;10.424;2024-01-30T08:42:24;14.93;;;9.88;;
83513;SDS011;73447;53.262;10.424;2024-01-30T08:44:51;16.67;;;9.57;;
83513;SDS011;73447;53.262;10.424;2024-01-30T08:47:18;15.07;;;9.60;;
83513;SDS011;73447;53.262;10.424;2024-01-30T08:49:43;15.75;;;9.90;;
83513;SDS011;73447;53.262;10.424;2024-01-30T08:52:09;13.60;;;9.15;;
83513;SDS011;73447;53.262;10.424;2024-01-30T08:54:38;16.80;;;9.73;;
83513;SDS011;73447;53.262;10.424;2024-01-30T08:57:03;17.40;;;10.45;;
83513;SDS011;73447;53.262;10.424;2024-01-30T08:59:29;16.67;;;9.27;;
83513;SDS011;73447;53.262;10.424;2024-01-30T09:01:55;15.73;;;10.20;;
83513;SDS011;73447;53.262;10.424;2024-01-30T09:04:24;16.30;;;10.00;;
83513;SDS011;73447;53.262;10.424;2024-01-30T09:06:49;18.45;;;10.23;;
83513;SDS011;73447;53.262;10.424;2024-01-30T09:09:15;15.40;;;9.80;;
83513;SDS011;73447;53.262;10.424;2024-01-30T09:11:40;14.55;;;9.07;;
83513;SDS011;73447;53.262;10.424;2024-01-30T09:14:06;16.30;;;9.77;;
83513;SDS011;73447;53.262;10.424;2024-01-30T09:16:31;14.77;;;9.43;;
83513;SDS011;73447;53.262;10.424;2024-01-30T09:18:57;16.20;;;9.23;;
83513;SDS011;73447;53.262;10.424;2024-01-30T09:21:22;13.73;;;8.88;;
83513;SDS011;73447;53.262;10.424;2024-01-30T09:23:48;14.75;;;8.77;;
83513;SDS011;73447;53.262;10.424;2024-01-30T09:26:13;13.38;;;9.52;;
83513;SDS011;73447;53.262;10.424;2024-01-30T09:28:39;14.43;;;8.70;;
83513;SDS011;73447;53.262;10.424;2024-01-30T09:31:04;14.25;;;8.98;;
83513;SDS011;73447;53.262;10.424;2024-01-30T09:33:35;14.50;;;8.48;;
83513;SDS011;73447;53.262;10.424;2024-01-30T09:36:01;14.75;;;9.30;;
83513;SDS011;73447;53.262;10.424;2024-01-30T09:38:26;15.52;;;9.55;;
83513;SDS011;73447;53.262;10.424;2024-01-30T09:40:53;15.20;;;8.35;;
83513;SDS011;73447;53.262;10.424;2024-01-30T09:43:23;17.48;;;9.35;;
83513;SDS011;73447;53.262;10.424;2024-01-30T09:45:49;14.07;;;9.07;;
83513;SDS011;73447;53.262;10.424;2024-01-30T09:48:15;17.40;;;10.23;;
83513;SDS011;73447;53.262;10.424;2024-01-30T09:50:41;14.10;;;8.70;;
83513;SDS011;73447;53.262;10.424;2024-01-30T09:53:07;13.07;;;9.10;;
83513;SDS011;73447;53.262;10.424;2024-01-30T09:55:34;14.18;;;8.73;;
83513;SDS011;73447;53.262;10.424;2024-01-30T09:58:01;16.20;;;9.23;;
83513;SDS011;73447;53.262;10.424;2024-01-30T10:00:27;12.32;;;8.20;;
83513;SDS011;73447;53.262;10.424;2024-01-30T10:02:52;13.13;;;8.00;;
83513;SDS011;73447;53.262;10.424;2024-01-30T10:05:18;14.60;;;8.98;;
83513;SDS011;73447;53.262;10.424;2024-01-30T10:07:54;14.40;;;9.00;;
83513;SDS011;73447;53.262;10.424;2024-01-30T10:10:22;13.63;;;8.23;;
83513;SDS011;73447;53.262;10.424;2024-01-30T10:12:48;15.23;;;9.75;;
83513;SDS011;73447;53.262;10.424;2024-01-30T10:15:14;13.10;;;8.57;;
83513;SDS011;73447;53.262;10.424;2024-01-30T10:17:40;12.20;;;8.07;;
83513;SDS011;73447;53.262;10.424;2024-01-30T10:20:05;13.52;;;8.18;;
83513;SDS011;73447;53.262;10.424;2024-01-30T10:22:32;12.90;;;8.68;;
83513;SDS011;73447;53.262;10.424;2024-01-30T10:24:58;13.10;;;8.20;;
83513;SDS011;73447;53.262;10.424;2024-01-30T10:27:25;14.50;;;8.63;;
83513;SDS011;73447;53.262;10.424;2024-01-30T10:29:52;12.02;;;8.18;;
83513;SDS011;73447;53.262;10.424;2024-01-30T10:32:17;12.57;;;8.25;;
83513;SDS011;73447;53.262;10.424;2024-01-30T10:34:42;14.95;;;8.40;;
83513;SDS011;73447;53.262;10.424;2024-01-30T10:37:09;17.33;;;9.93;;
83513;SDS011;73447;53.262;10.424;2024-01-30T10:39:40;14.15;;;8.38;;
83513;SDS011;73447;53.262;10.424;2024-01-30T10:42:10;13.30;;;8.40;;
83513;SDS011;73447;53.262;10.424;2024-01-30T10:47:10;12.10;;;7.82;;
83513;SDS011;73447;53.262;10.424;2024-01-30T10:49:38;14.20;;;8.30;;
83513;SDS011;73447;53.262;10.424;2024-01-30T10:52:05;14.95;;;9.25;;
83513;SDS011;73447;53.262;10.424;2024-01-30T10:54:33;14.10;;;8.35;;
83513;SDS011;73447;53.262;10.424;2024-01-30T10:57:00;12.05;;;8.00;;
83513;SDS011;73447;53.262;10.424;2024-01-30T10:59:29;12.88;;;7.43;;
83513;SDS011;73447;53.262;10.424;2024-01-30T11:01:57;12.00;;;7.55;;
83513;SDS011;73447;53.262;10.424;2024-01-30T11:04:24;11.15;;;7.60;;
83513;SDS011;73447;53.262;10.424;2024-01-30T11:06:50;12.43;;;7.07;;
83513;SDS011;73447;53.262;10.424;2024-01-30T11:09:16;13.32;;;7.82;;
83513;SDS011;73447;53.262;10.424;2024-01-30T11:14:14;10.80;;;7.63;;
83513;SDS011;73447;53.262;10.424;2024-01-30T11:16:40;12.35;;;7.75;;
83513;SDS011;73447;53.262;10.424;2024-01-30T11:19:05;11.73;;;7.10;;
83513;SDS011;73447;53.262;10.424;2024-01-30T11:21:42;14.77;;;7.60;;
83513;SDS011;73447;53.262;10.424;2024-01-30T11:24:08;11.88;;;7.47;;
83513;SDS011;73447;53.262;10.424;2024-01-30T11:26:33;12.02;;;7.38;;
83513;SDS011;73447;53.262;10.424;2024-01-30T11:28:59;13.45;;;8.30;;
83513;SDS011;73447;53.262;10.424;2024-01-30T11:31:29;14.27;;;8.45;;
83513;SDS011;73447;53.262;10.424;2024-01-30T11:33:55;11.63;;;7.90;;
83513;SDS011;73447;53.262;10.424;2024-01-30T11:36:25;11.63;;;7.38;;
83513;SDS011;73447;53.262;10.424;2024-01-30T11:38:54;11.05;;;7.00;;
83513;SDS011;73447;53.262;10.424;2024-01-30T11:41:19;13.10;;;7.65;;
83513;SDS011;73447;53.262;10.424;2024-01-30T11:43:52;13.23;;;8.60;;
83513;SDS011;73447;53.262;10.424;2024-01-30T11:46:18;10.27;;;7.18;;
83513;SDS011;73447;53.262;10.424;2024-01-30T11:48:43;10.65;;;7.05;;
83513;SDS011;73447;53.262;10.424;2024-01-30T11:51:09;11.50;;;7.95;;
83513;SDS011;73447;53.262;10.424;2024-01-30T11:53:34;12.57;;;7.25;;
83513;SDS011;73447;53.262;10.424;2024-01-30T11:55:59;11.48;;;7.35;;
83513;SDS011;73447;53.262;10.424;2024-01-30T11:58:25;13.55;;;7.45;;
83513;SDS011;73447;53.262;10.424;2024-01-30T12:00:57;9.25;;;7.03;;
83513;SDS011;73447;53.262;10.424;2024-01-30T12:03:23;14.07;;;7.45;;
83513;SDS011;73447;53.262;10.424;2024-01-30T12:05:54;10.70;;;7.22;;
83513;SDS011;73447;53.262;10.424;2024-01-30T12:10:49;10.00;;;6.57;;
83513;SDS011;73447;53.262;10.424;2024-01-30T12:13:20;10.80;;;6.75;;
83513;SDS011;73447;53.262;10.424;2024-01-30T12:15:46;12.35;;;7.60;;
83513;SDS011;73447;53.262;10.424;2024-01-30T12:18:11;10.30;;;6.90;;
83513;SDS011;73447;53.262;10.424;2024-01-30T12:20:36;11.30;;;6.90;;
83513;SDS011;73447;53.262;10.424;2024-01-30T12:23:02;10.43;;;6.72;;
83513;SDS011;73447;53.262;10.424;2024-01-30T12:25:27;11.57;;;7.78;;
83513;SDS011;73447;53.262;10.424;2024-01-30T12:27:53;12.30;;;7.13;;
83513;SDS011;73447;53.262;10.424;2024-01-30T12:30:19;10.48;;;7.18;;
83513;SDS011;73447;53.262;10.424;2024-01-30T12:32:46;11.15;;;7.20;;
83513;SDS011;73447;53.262;10.424;2024-01-30T12:35:13;12.80;;;7.00;;
83513;SDS011;73447;53.262;10.424;2024-01-30T12:37:39;10.35;;;6.75;;
83513;SDS011;73447;53.262;10.424;2024-01-30T12:40:07;9.07;;;6.45;;
83513;SDS011;73447;53.262;10.424;2024-01-30T12:42:33;12.70;;;7.00;;
83513;SDS011;73447;53.262;10.424;2024-01-30T12:44:58;9.65;;;6.80;;
83513;SDS011;73447;53.262;10.424;2024-01-30T12:47:24;10.63;;;6.45;;
83513;SDS011;73447;53.262;10.424;2024-01-30T12:49:50;13.55;;;7.38;;
83513;SDS011;73447;53.262;10.424;2024-01-30T12:52:18;15.10;;;6.80;;
83513;SDS011;73447;53.262;10.424;2024-01-30T12:54:44;9.52;;;6.95;;
83513;SDS011;73447;53.262;10.424;2024-01-30T12:57:10;11.60;;;7.32;;
83513;SDS011;73447;53.262;10.424;2024-01-30T12:59:35;10.48;;;6.78;;
83513;SDS011;73447;53.262;10.424;2024-01-30T13:02:01;16.40;;;9.45;;
83513;SDS011;73447;53.262;10.424;2024-01-30T13:04:28;10.93;;;6.78;;
83513;SDS011;73447;53.262;10.424;2024-01-30T13:06:54;9.48;;;6.55;;
83513;SDS011;73447;53.262;10.424;2024-01-30T13:09:19;11.27;;;6.75;;
83513;SDS011;73447;53.262;10.424;2024-01-30T13:11:45;13.88;;;7.15;;
83513;SDS011;73447;53.262;10.424;2024-01-30T13:14:11;11.73;;;7.07;;
83513;SDS011;73447;53.262;10.424;2024-01-30T13:16:36;12.50;;;8.15;;
83513;SDS011;73447;53.262;10.424;2024-01-30T13:19:02;14.07;;;9.45;;
83513;SDS011;73447;53.262;10.424;2024-01-30T13:21:27;18.67;;;11.95;;
83513;SDS011;73447;53.262;10.424;2024-01-30T13:23:53;20.10;;;11.77;;
83513;SDS011;73447;53.262;10.424;2024-01-30T13:26:20;17.80;;;11.50;;
83513;SDS011;73447;53.262;10.424;2024-01-30T13:28:45;13.07;;;7.53;;
83513;SDS011;73447;53.262;10.424;2024-01-30T13:31:11;11.95;;;7.75;;
83513;SDS011;73447;53.262;10.424;2024-01-30T13:33:37;15.63;;;8.77;;
83513;SDS011;73447;53.262;10.424;2024-01-30T13:36:03;19.63;;;12.77;;
83513;SDS011;73447;53.262;10.424;2024-01-30T13:38:28;16.33;;;9.85;;
83513;SDS011;73447;53.262;10.424;2024-01-30T13:40:54;15.95;;;9.35;;
83513;SDS011;73447;53.262;10.424;2024-01-30T13:43:19;12.10;;;7.57;;
83513;SDS011;73447;53.262;10.424;2024-01-30T13:45:44;25.80;;;15.63;;
83513;SDS011;73447;53.262;10.424;2024-01-30T13:48:11;21.70;;;12.98;;
83513;SDS011;73447;53.262;10.424;2024-01-30T13:50:36;25.70;;;16.05;;
83513;SDS011;73447;53.262;10.424;2024-01-30T13:53:02;15.10;;;9.00;;
83513;SDS011;73447;53.262;10.424;2024-01-30T13:55:28;18.63;;;12.30;;
83513;SDS011;73447;53.262;10.424;2024-01-30T13:57:54;18.55;;;11.10;;
83513;SDS011;73447;53.262;10.424;2024-01-30T14:00:20;17.17;;;10.95;;
83513;SDS011;73447;53.262;10.424;2024-01-30T14:02:47;15.60;;;7.20;;
83513;SDS011;73447;53.262;10.424;2024-01-30T14:05:12;12.77;;;7.90;;
83513;SDS011;73447;53.262;10.424;2024-01-30T14:07:39;12.50;;;7.57;;
83513;SDS011;73447;53.262;10.424;2024-01-30T14:10:05;14.05;;;8.48;;
83513;SDS011;73447;53.262;10.424;2024-01-30T14:12:31;17.25;;;9.05;;
83513;SDS011;73447;53.262;10.424;2024-01-30T14:14:56;13.45;;;9.32;;
83513;SDS011;73447;53.262;10.424;2024-01-30T14:17:22;14.65;;;8.10;;
83513;SDS011;73447;53.262;10.424;2024-01-30T14:19:47;13.18;;;6.65;;